Red Jacket — 3ERX4 — position and weather

sailwx.info

Track history (hours):
 
Tides and Currents Weather Stations Pressure Air Temp Water Temp Dewpoint Dewpoint Depression Visibility Wind Speed Wind Dir Waves Ship Positions

Red Jacket

Last reported at 2018-Aug-13 20:12 UTC. Time now 2018-Aug-14 13:48 UTC.
Position N 36°13' W 009°16'.

Length 189 m; draft 8.6 m.

Type: Cargo ship. MMSI: 370191000.

Date/timePositionNaut miles runAvg speedWind from/ knotsBaromVisibWave heightAir tempDewpointWater temp
2018-Aug-13 20:12N 36°13' W 009°16'211.5
2018-Aug-13 20:00N 36°12' W 009°13'911.6
2018-Aug-13 19:14N 36°12' W 009°02'811.7
2018-Aug-13 18:31N 36°11' W 008°52'011.7
2018-Aug-13 18:30N 36°11' W 008°52'611.6
2018-Aug-13 18:00N 36°10' W 008°45'611.4
2018-Aug-13 17:30N 36°10' W 008°38'911.4
2018-Aug-13 16:43N 36°09' W 008°27'1011.5
2018-Aug-13 15:52N 36°08' W 008°15'12212.1
2018-Aug-13 05:49N 35°57' W 005°45'510.3
2018-Aug-13 05:23N 35°57' W 005°39'410.3
2018-Aug-13 05:00N 35°58' W 005°34'510.8
2018-Aug-13 04:30N 35°60' W 005°28'510.8
2018-Aug-13 04:00N 36°01' W 005°22'612.1
2018-Aug-13 03:30N 36°03' W 005°14'25512.5
2018-Aug-12 07:08N 36°42' W 000°01'212.6
2018-Aug-12 07:00N 36°42' E 000°01'712.6
2018-Aug-12 06:27N 36°43' E 000°10'612.8
2018-Aug-12 06:00N 36°44' E 000°17'10011.9
2018-Aug-11 21:33N 36°60' E 002°20'112.2
2018-Aug-11 21:30N 36°60' E 002°21'1711.9
2018-Aug-11 20:04N 37°02' E 002°42'111.9
2018-Aug-11 20:00N 37°02' E 002°43'51912.8
2018-Aug-10 03:23N 36°48' E 013°33'513.4
2018-Aug-10 03:00N 36°46' E 013°39'713.6
2018-Aug-10 02:30N 36°44' E 013°47'713.7
2018-Aug-10 02:00N 36°42' E 013°55'713.9
2018-Aug-10 01:30N 36°39' E 014°03'713.7
2018-Aug-10 01:00N 36°37' E 014°11'713.5
2018-Aug-10 00:30N 36°35' E 014°19'713.4
2018-Aug-10 00:00N 36°32' E 014°27'613.0
2018-Aug-09 23:30N 36°30' E 014°34'713.0
2018-Aug-09 23:00N 36°28' E 014°42'612.9
2018-Aug-09 22:30N 36°26' E 014°49'812.9
2018-Aug-09 21:54N 36°24' E 014°59'  
Track history (hours):
 
Tides and Currents Weather Stations Pressure Air Temp Water Temp Dewpoint Dewpoint Depression Visibility Wind Speed Wind Dir Waves Ship Positions

Red Jacket

Last reported at 2018-Aug-13 20:12 UTC. Time now 2018-Aug-14 13:48 UTC.
Position N 36°13' W 009°16'.

Length 189 m; draft 8.6 m.

Type: Cargo ship. MMSI: 370191000.

Date/timePositionNaut miles runAvg speedWind from/ knotsBaromVisibWave heightAir tempDewpointWater temp
2018-Aug-13 20:12N 36°13' W 009°16'211.5
2018-Aug-13 20:00N 36°12' W 009°13'911.6
2018-Aug-13 19:14N 36°12' W 009°02'811.7
2018-Aug-13 18:31N 36°11' W 008°52'011.7
2018-Aug-13 18:30N 36°11' W 008°52'611.6
2018-Aug-13 18:00N 36°10' W 008°45'611.4
2018-Aug-13 17:30N 36°10' W 008°38'911.4
2018-Aug-13 16:43N 36°09' W 008°27'1011.5
2018-Aug-13 15:52N 36°08' W 008°15'12212.1
2018-Aug-13 05:49N 35°57' W 005°45'510.3
2018-Aug-13 05:23N 35°57' W 005°39'410.3
2018-Aug-13 05:00N 35°58' W 005°34'510.8
2018-Aug-13 04:30N 35°60' W 005°28'510.8
2018-Aug-13 04:00N 36°01' W 005°22'612.1
2018-Aug-13 03:30N 36°03' W 005°14'25512.5
2018-Aug-12 07:08N 36°42' W 000°01'212.6
2018-Aug-12 07:00N 36°42' E 000°01'712.6
2018-Aug-12 06:27N 36°43' E 000°10'612.8
2018-Aug-12 06:00N 36°44' E 000°17'10011.9
2018-Aug-11 21:33N 36°60' E 002°20'112.2
2018-Aug-11 21:30N 36°60' E 002°21'1711.9
2018-Aug-11 20:04N 37°02' E 002°42'111.9
2018-Aug-11 20:00N 37°02' E 002°43'51912.8
2018-Aug-10 03:23N 36°48' E 013°33'513.4
2018-Aug-10 03:00N 36°46' E 013°39'713.6
2018-Aug-10 02:30N 36°44' E 013°47'713.7
2018-Aug-10 02:00N 36°42' E 013°55'713.9
2018-Aug-10 01:30N 36°39' E 014°03'713.7
2018-Aug-10 01:00N 36°37' E 014°11'713.5
2018-Aug-10 00:30N 36°35' E 014°19'713.4
2018-Aug-10 00:00N 36°32' E 014°27'613.0
2018-Aug-09 23:30N 36°30' E 014°34'713.0
2018-Aug-09 23:00N 36°28' E 014°42'612.9
2018-Aug-09 22:30N 36°26' E 014°49'812.9
2018-Aug-09 21:54N 36°24' E 014°59'  

Dump ship's entire track history